Have a Safe July 4th! 

Flight Track Log - Related Links

Times and Time Zones

All times are in EDT time to prevent confusion due to time zone crossing. See the CTL18 flight status page for this flight to view local times or setup timezone preferences in your user account.

Time Position Orientation Groundspeed Altitude Reporting Facility
EDT Latitude Longitude Course Direction KTS MPH feet Rate Location/Type
Tue 10:16:39 PM 41.5311 -81.7147 300° West 127 146 1,700  Level Cleveland Center
Tue 10:17:39 PM 41.5644 -81.7292 342° North 130 150 2,500 694 Climbing Cleveland Center
Tue 10:18:40 PM 41.5911 -81.7658 314° West 148 170 3,100 595 Climbing Cleveland Center
Tue 10:19:40 PM 41.6072 -81.8133 294° West 142 163 3,700 545 Climbing Cleveland Center
Tue 10:20:41 PM 41.6233 -81.8636 293° West 142 163 4,200 541 Climbing Cleveland Center
Tue 10:21:42 PM 41.6375 -81.9111 292° West 146 168 4,800 595 Climbing Cleveland Center
Tue 10:22:42 PM 41.6556 -81.9644 294° West 145 167 5,400 496 Climbing Cleveland Center
Tue 10:23:43 PM 41.6717 -82.0119 294° West 146 168 5,800 347 Climbing Cleveland Center
Tue 10:24:43 PM 41.6900 -82.0597 297° West 150 173 6,100 149 Climbing Cleveland Center
Tue 10:25:44 PM 41.7100 -82.1214 293° West 169 194 6,100  Level Cleveland Center
Tue 10:26:45 PM 41.7300 -82.1775 296° West 166 191 6,100 50 Level Cleveland Center
Tue 10:27:45 PM 41.7458 -82.2361 290° West 165 190 6,200 50 Climbing Cleveland Center
Tue 10:28:46 PM 41.7617 -82.2953 290° West 166 191 6,200 -57 Level Cleveland Center
Tue 10:29:30 PM 41.7756 -82.3344 295° West 166 191 6,100 -89 Descending Cleveland Center
Tue 10:31:01 PM 41.7972 -82.4242 288° West 169 194 6,000  Descending Cleveland Center
Tue 10:32:02 PM 41.8128 -82.4858 289° West 168 193 6,100  Climbing Cleveland Center
Tue 10:32:57 PM 41.8264 -82.5392 289° West 167 192 6,000 -52 Descending Cleveland Center
Tue 10:33:57 PM 41.8486 -82.5931 299° West 168 193 6,000  Level Cleveland Center
Tue 10:35:16 PM 41.9022 -82.6281 334° Northwest 164 189 6,000 47 Level Cleveland Center
Tue 10:36:05 PM 41.9308 -82.6569 323° Northwest 163 188 6,100 66 Climbing Cleveland Center
Tue 10:36:47 PM 41.9594 -82.6803 329° Northwest 164 189 6,100 -55 Level Cleveland Center
Tue 10:37:54 PM 42.0047 -82.7181 328° Northwest 167 192 6,000 -47 Descending Cleveland Center
Tue 10:38:55 PM 42.0436 -82.7500 329° Northwest 169 194 6,000  Level Cleveland Center
Tue 10:39:55 PM 42.0847 -82.7822 330° Northwest 168 193 6,000 50 Level Cleveland Center
Tue 10:40:56 PM 42.1258 -82.8172 328° Northwest 168 193 6,100  Climbing Cleveland Center
Tue 10:41:50 PM 42.1586 -82.8436 329° Northwest 169 194 6,000 -52 Descending Cleveland Center
Tue 10:42:51 PM 42.2039 -82.8817 328° Northwest 168 193 6,000 55 Level Cleveland Center
Tue 10:43:40 PM 42.2344 -82.9053 330° Northwest 169 194 6,100 52 Climbing Cleveland Center
Tue 10:44:46 PM 42.2797 -82.9433 328° Northwest 171 197 6,100  Level Cleveland Center
Tue 10:45:53 PM 42.3247 -82.9789 330° Northwest 171 197 6,100 -189 Level Cleveland Center
Tue 10:46:53 PM 42.3658 -83.0142 328° Northwest 177 204 5,700 -606 Descending Cleveland Center
Tue 10:47:42 PM 42.4025 -83.0492 325° Northwest 195 224 5,000 -709 Descending Cleveland Center
Tue 10:48:43 PM 42.4456 -83.0875 327° Northwest 184 212 4,400 -567 Descending Cleveland Center
Tue 10:49:49 PM 42.4903 -83.1342 322° Northwest 171 197 3,800 -567 Descending Cleveland Center
Tue 10:50:50 PM 42.5247 -83.1836 313° West 173 199 3,200 -443 Descending Cleveland Center
Tue 10:51:51 PM 42.5569 -83.2272 315° West 163 188 2,900 -347 Descending Cleveland Center
Tue 10:52:51 PM 42.5872 -83.2736 312° West 162 186 2,500 -397 Descending Cleveland Center
Tue 10:53:52 PM 42.6175 -83.3144 315° West 159 183 2,100 -295 Descending Cleveland Center
Tue 10:54:53 PM 42.6456 -83.3581 311° West 144 166 1,900 -365 Descending Cleveland Center
Tue 10:55:47 PM 42.6636 -83.3897 308° West 110 127 1,400 -556 Descending Cleveland Center
Tue 10:57:00 PM 42.6500 -83.4167 304° West  Level FlightAware Approximate
Tue 11:04:00 PM 42.6656 -83.4205 304° West  Level Estimated
Tue 11:05:00 PM 42.6656 -83.4205 304° West  Level Estimated

Login

Don't have an account? Register now (free) for customized features, flight alerts, and more!